createdAt,value
2023-02-27T00:00:16.450Z,9.93
2023-02-27T00:05:16.695Z,6.55
2023-02-27T00:07:44.201Z,4.97
2023-02-27T00:10:13.918Z,6.18
2023-02-27T00:12:42.081Z,5.15
2023-02-27T00:15:16.294Z,5.20
2023-02-27T00:17:44.257Z,7.13
2023-02-27T00:20:14.415Z,5.18
2023-02-27T00:22:42.632Z,7.72
2023-02-27T00:25:10.787Z,6.38
2023-02-27T00:27:38.378Z,7.07
2023-02-27T00:30:08.766Z,4.78
2023-02-27T00:32:36.660Z,3.03
2023-02-27T00:35:09.700Z,3.35
2023-02-27T00:37:37.564Z,4.63
2023-02-27T00:40:05.697Z,4.68
2023-02-27T00:42:33.543Z,5.45
2023-02-27T00:45:02.825Z,5.97
2023-02-27T00:47:32.434Z,6.00
2023-02-27T00:49:59.361Z,7.53
2023-02-27T00:52:26.934Z,6.10
2023-02-27T00:54:54.075Z,5.55
2023-02-27T00:57:21.471Z,5.18
2023-02-27T00:59:50.174Z,8.00
2023-02-27T01:02:17.303Z,5.57
2023-02-27T01:04:44.346Z,3.75
2023-02-27T01:07:11.289Z,4.28
2023-02-27T01:09:38.523Z,4.10
2023-02-27T01:12:05.537Z,4.05
2023-02-27T01:14:32.639Z,5.10
2023-02-27T01:16:59.558Z,5.13
2023-02-27T01:19:26.568Z,4.90
2023-02-27T01:21:53.644Z,6.65
2023-02-27T01:24:21.937Z,3.00
2023-02-27T01:26:49.199Z,4.05
2023-02-27T01:29:16.337Z,4.50
2023-02-27T01:31:43.373Z,4.78
2023-02-27T01:34:11.464Z,3.67
2023-02-27T01:36:38.393Z,2.85
2023-02-27T01:39:05.326Z,5.57
2023-02-27T01:41:33.485Z,3.00
2023-02-27T01:44:09.825Z,4.00
2023-02-27T01:46:38.375Z,6.93
2023-02-27T01:49:11.940Z,5.53
2023-02-27T01:51:49.217Z,3.65
2023-02-27T01:54:21.817Z,6.40
2023-02-27T01:56:50.313Z,5.65
2023-02-27T01:59:18.581Z,3.75
2023-02-27T02:01:46.288Z,4.20
2023-02-27T02:04:27.758Z,4.30
2023-02-27T02:07:01.209Z,3.25
2023-02-27T02:09:30.549Z,4.15
2023-02-27T02:11:59.466Z,7.28
2023-02-27T02:14:26.574Z,2.80
2023-02-27T02:17:11.614Z,6.80
2023-02-27T02:23:13.433Z,2.78
2023-02-27T02:25:49.331Z,2.80
2023-02-27T02:28:43.867Z,3.33
2023-02-27T02:31:38.722Z,3.80
2023-02-27T02:34:25.684Z,5.75
2023-02-27T02:37:17.357Z,6.50
2023-02-27T02:40:21.860Z,5.88
2023-02-27T02:43:19.838Z,3.67
2023-02-27T02:45:55.145Z,3.10
2023-02-27T02:48:35.313Z,3.67
2023-02-27T02:51:22.248Z,2.65
2023-02-27T02:54:14.787Z,2.83
2023-02-27T02:56:50.530Z,4.13
2023-02-27T02:59:36.241Z,4.65
2023-02-27T03:04:55.846Z,3.95
2023-02-27T03:07:31.607Z,5.22
2023-02-27T03:10:25.220Z,3.30
2023-02-27T03:13:21.026Z,3.53
2023-02-27T03:16:09.056Z,2.95
2023-02-27T03:18:59.945Z,2.95
2023-02-27T03:21:58.314Z,4.10
2023-02-27T03:24:35.682Z,5.43
2023-02-27T03:27:09.098Z,2.78
2023-02-27T03:30:10.284Z,2.72
2023-02-27T03:32:56.813Z,4.00
2023-02-27T03:35:56.778Z,4.63
2023-02-27T03:39:22.040Z,6.18
2023-02-27T03:42:01.354Z,4.25
2023-02-27T03:45:08.243Z,4.97
2023-02-27T03:47:36.198Z,4.90
2023-02-27T03:50:03.788Z,7.47
2023-02-27T03:52:31.593Z,3.80
2023-02-27T03:55:16.959Z,7.28
2023-02-27T03:57:48.058Z,6.82
2023-02-27T04:00:23.112Z,3.38
2023-02-27T04:02:54.437Z,6.32
2023-02-27T04:05:25.469Z,6.40
2023-02-27T04:09:07.808Z,4.80
2023-02-27T04:11:57.246Z,5.03
2023-02-27T04:15:03.065Z,4.13
2023-02-27T04:17:39.679Z,5.88
2023-02-27T04:20:39.782Z,5.57
2023-02-27T04:23:24.289Z,5.97
2023-02-27T04:26:12.373Z,4.75
2023-02-27T04:29:05.059Z,4.85
2023-02-27T04:32:04.711Z,5.75
2023-02-27T04:34:44.455Z,9.63
2023-02-27T04:37:42.416Z,5.65
2023-02-27T04:40:20.598Z,5.07
2023-02-27T04:42:57.111Z,8.90
2023-02-27T04:45:27.485Z,4.57
2023-02-27T04:48:30.676Z,7.20
2023-02-27T04:51:27.145Z,5.95
2023-02-27T04:54:05.603Z,5.95
2023-02-27T04:56:40.478Z,5.47
2023-02-27T04:59:17.328Z,5.07
2023-02-27T05:01:54.110Z,6.80
2023-02-27T05:04:25.003Z,6.63
2023-02-27T05:06:55.785Z,7.55
2023-02-27T05:09:41.025Z,5.20
2023-02-27T05:12:28.876Z,4.80
2023-02-27T05:15:18.746Z,6.32
2023-02-27T05:17:59.786Z,9.38
2023-02-27T05:20:43.522Z,5.28
2023-02-27T05:23:30.022Z,8.50
2023-02-27T05:26:34.358Z,8.10
2023-02-27T05:29:36.528Z,7.75
2023-02-27T05:33:16.716Z,6.75
2023-02-27T05:36:16.047Z,4.70
2023-02-27T05:38:57.166Z,6.65
2023-02-27T05:41:48.651Z,9.38
2023-02-27T05:44:25.567Z,4.90
2023-02-27T05:47:07.895Z,5.25
2023-02-27T05:49:54.625Z,7.90
2023-02-27T05:52:27.768Z,5.65
2023-02-27T05:55:35.839Z,7.32
2023-02-27T05:58:28.614Z,6.07
2023-02-27T06:01:06.330Z,9.35
2023-02-27T06:03:36.439Z,7.93
2023-02-27T06:06:09.107Z,9.02
2023-02-27T06:08:36.798Z,6.93
2023-02-27T06:11:03.817Z,5.47
2023-02-27T06:13:30.945Z,8.40
2023-02-27T06:15:57.932Z,7.13
2023-02-27T06:18:24.941Z,5.88
2023-02-27T06:20:51.940Z,7.97
2023-02-27T06:23:18.993Z,5.70
2023-02-27T06:25:46.122Z,6.80
2023-02-27T06:28:13.468Z,6.00
2023-02-27T06:30:40.535Z,5.90
2023-02-27T06:33:07.683Z,7.63
2023-02-27T06:35:34.743Z,4.13
2023-02-27T06:38:01.751Z,5.35
2023-02-27T06:40:28.706Z,6.82
2023-02-27T06:42:55.631Z,5.45
2023-02-27T06:45:24.273Z,8.88
2023-02-27T06:47:51.176Z,5.32
2023-02-27T06:50:29.282Z,5.45
2023-02-27T06:52:56.330Z,5.88
2023-02-27T06:55:24.970Z,8.73
2023-02-27T06:57:51.883Z,7.63
2023-02-27T07:00:19.441Z,8.52
2023-02-27T07:02:46.772Z,4.75
2023-02-27T07:05:14.031Z,11.50
2023-02-27T07:07:41.055Z,8.18
2023-02-27T07:10:13.136Z,4.32
2023-02-27T07:12:41.159Z,5.90
2023-02-27T07:15:09.402Z,7.70
2023-02-27T07:17:36.504Z,5.47
2023-02-27T07:20:08.188Z,7.65
2023-02-27T07:22:35.637Z,9.02
2023-02-27T07:25:03.985Z,9.60
2023-02-27T07:27:31.597Z,9.65
2023-02-27T07:29:58.712Z,10.52
2023-02-27T07:32:25.717Z,6.43
2023-02-27T07:34:58.621Z,9.60
2023-02-27T07:37:27.935Z,12.13
2023-02-27T07:39:55.992Z,7.00
2023-02-27T07:42:22.879Z,11.30
2023-02-27T07:44:49.751Z,9.90
2023-02-27T07:47:17.751Z,7.18
2023-02-27T07:49:44.714Z,8.45
2023-02-27T07:52:11.871Z,7.95
2023-02-27T07:54:39.803Z,7.68
2023-02-27T07:57:07.024Z,10.00
2023-02-27T07:59:33.964Z,8.38
2023-02-27T08:02:00.828Z,11.88
2023-02-27T08:04:27.788Z,5.70
2023-02-27T08:06:54.755Z,9.30
2023-02-27T08:09:21.759Z,11.30
2023-02-27T08:11:49.395Z,9.77
2023-02-27T08:14:16.420Z,8.10
2023-02-27T08:16:43.343Z,9.02
2023-02-27T08:19:13.662Z,9.07
2023-02-27T08:21:41.582Z,8.63
2023-02-27T08:24:08.455Z,10.50
2023-02-27T08:26:35.580Z,9.88
2023-02-27T08:29:02.501Z,9.85
2023-02-27T08:31:29.655Z,7.85
2023-02-27T08:34:09.335Z,9.48
2023-02-27T08:36:39.212Z,8.05
2023-02-27T08:39:08.530Z,9.98
2023-02-27T08:41:36.766Z,8.80
2023-02-27T08:44:04.144Z,6.28
2023-02-27T08:46:33.894Z,7.63
2023-02-27T08:49:00.892Z,8.07
2023-02-27T08:51:28.178Z,8.82
2023-02-27T08:53:58.797Z,7.00
2023-02-27T08:56:27.982Z,8.68
2023-02-27T08:58:56.421Z,7.90
2023-02-27T09:01:24.031Z,5.57
2023-02-27T09:03:51.813Z,10.80
2023-02-27T09:06:18.777Z,9.75
2023-02-27T09:08:45.772Z,8.18
2023-02-27T09:11:15.812Z,8.38
2023-02-27T09:13:46.403Z,7.78
2023-02-27T09:16:23.764Z,4.63
2023-02-27T09:18:51.496Z,3.08
2023-02-27T09:21:24.867Z,7.95
2023-02-27T09:24:02.578Z,3.58
2023-02-27T09:26:58.250Z,5.45
2023-02-27T09:29:28.941Z,7.80
2023-02-27T09:31:56.078Z,6.05
2023-02-27T09:34:23.137Z,5.60
2023-02-27T09:36:50.162Z,9.07
2023-02-27T09:39:17.660Z,6.25
2023-02-27T09:42:05.308Z,5.55
2023-02-27T09:44:59.163Z,3.50
2023-02-27T09:47:42.053Z,5.18
2023-02-27T09:50:38.576Z,5.78
2023-02-27T09:53:13.702Z,5.10
2023-02-27T09:55:43.557Z,5.97
2023-02-27T09:58:50.636Z,6.93
2023-02-27T10:01:40.685Z,2.67
2023-02-27T10:04:16.344Z,6.63
2023-02-27T10:06:50.828Z,5.22
2023-02-27T10:10:21.146Z,3.90
2023-02-27T10:12:54.980Z,7.22
2023-02-27T10:15:33.453Z,3.28
2023-02-27T10:18:25.508Z,4.97
2023-02-27T10:21:19.685Z,3.60
2023-02-27T10:24:07.683Z,7.22
2023-02-27T10:26:44.141Z,2.45
2023-02-27T10:29:39.794Z,6.00
2023-02-27T10:32:33.203Z,6.45
2023-02-27T10:35:38.630Z,5.47
2023-02-27T10:38:32.712Z,5.68
2023-02-27T10:41:04.901Z,3.65
2023-02-27T10:43:32.041Z,6.68
2023-02-27T10:46:28.284Z,5.38
2023-02-27T10:49:00.271Z,4.85
2023-02-27T10:51:31.417Z,4.50
2023-02-27T10:54:23.632Z,5.00
2023-02-27T10:56:52.583Z,4.95
2023-02-27T10:59:25.638Z,4.35
2023-02-27T11:01:57.768Z,6.07
2023-02-27T11:04:36.508Z,3.22
2023-02-27T11:07:11.732Z,7.63
2023-02-27T11:12:29.331Z,6.07
2023-02-27T11:15:01.821Z,3.47
2023-02-27T11:17:34.777Z,6.28
2023-02-27T11:20:07.339Z,3.60
2023-02-27T11:22:34.425Z,3.42
2023-02-27T11:25:23.203Z,4.20
2023-02-27T11:27:52.176Z,7.03
2023-02-27T11:30:32.817Z,2.83
2023-02-27T11:33:02.450Z,5.32
2023-02-27T11:35:43.005Z,5.00
2023-02-27T11:38:29.316Z,5.68
2023-02-27T11:41:04.427Z,4.57
2023-02-27T11:43:50.882Z,4.35
2023-02-27T11:46:47.363Z,2.83
2023-02-27T11:49:34.718Z,2.67
2023-02-27T11:52:32.425Z,2.60
2023-02-27T11:55:05.035Z,2.53
2023-02-27T11:57:41.313Z,4.30
2023-02-27T12:00:36.540Z,3.58
2023-02-27T12:03:49.365Z,6.50
2023-02-27T12:06:43.994Z,5.05
2023-02-27T12:09:38.365Z,3.55
2023-02-27T12:12:20.532Z,3.80
2023-02-27T12:15:00.891Z,2.83
2023-02-27T12:17:40.814Z,4.55
2023-02-27T12:20:30.098Z,5.93
2023-02-27T12:22:57.136Z,4.72
2023-02-27T12:25:53.882Z,3.97
2023-02-27T12:28:39.864Z,3.65
2023-02-27T12:31:34.709Z,3.47
2023-02-27T12:34:16.836Z,3.00
2023-02-27T12:36:49.536Z,3.08
2023-02-27T12:39:24.896Z,2.13
2023-02-27T12:42:16.657Z,2.08
2023-02-27T12:45:33.292Z,2.00
2023-02-27T12:48:18.724Z,6.47
2023-02-27T12:51:04.289Z,2.60
2023-02-27T12:56:25.605Z,3.00
2023-02-27T12:59:24.727Z,3.63
2023-02-27T13:02:30.178Z,2.92
2023-02-27T13:05:31.395Z,1.80
2023-02-27T13:08:16.821Z,1.85
2023-02-27T13:10:50.868Z,2.17
2023-02-27T13:13:52.108Z,2.85
2023-02-27T13:16:50.646Z,1.63
2023-02-27T13:19:28.926Z,2.42
2023-02-27T13:22:34.046Z,2.70
2023-02-27T13:25:14.208Z,2.97
2023-02-27T13:27:47.216Z,1.10
2023-02-27T13:30:32.661Z,3.05
2023-02-27T13:33:25.186Z,2.30
2023-02-27T13:36:24.440Z,5.03
2023-02-27T13:38:55.258Z,2.00
2023-02-27T13:41:39.880Z,1.83
2023-02-27T13:44:22.572Z,4.20
2023-02-27T13:46:53.109Z,3.17
2023-02-27T13:49:29.521Z,0.57
2023-02-27T13:52:01.964Z,1.65
2023-02-27T13:54:39.141Z,1.58
2023-02-27T13:57:18.260Z,1.05
2023-02-27T13:59:58.297Z,1.38
2023-02-27T14:02:59.369Z,0.85
2023-02-27T14:05:42.655Z,0.50
2023-02-27T14:08:24.222Z,1.17
2023-02-27T14:11:30.589Z,1.95
2023-02-27T14:14:00.182Z,2.90
2023-02-27T14:16:39.922Z,1.23
2023-02-27T14:19:16.164Z,1.30
2023-02-27T14:22:22.444Z,2.03
2023-02-27T14:25:06.458Z,2.75
2023-02-27T14:27:50.261Z,1.95
2023-02-27T14:30:42.920Z,0.93
2023-02-27T14:33:40.972Z,0.30
2023-02-27T14:37:02.257Z,2.90
2023-02-27T14:39:34.645Z,0.45
2023-02-27T14:42:39.325Z,3.17
2023-02-27T14:45:24.558Z,1.70
2023-02-27T14:47:53.297Z,2.67
2023-02-27T14:50:37.323Z,0.45
2023-02-27T14:53:07.019Z,1.92
2023-02-27T14:55:37.063Z,0.73
2023-02-27T14:58:08.125Z,1.20
2023-02-27T15:00:36.946Z,1.70
2023-02-27T15:03:44.174Z,1.02
2023-02-27T15:06:28.163Z,1.23
2023-02-27T15:08:57.178Z,2.60
2023-02-27T15:11:25.973Z,1.67
2023-02-27T15:14:03.678Z,0.65
2023-02-27T15:16:37.597Z,1.48
2023-02-27T15:19:29.073Z,2.20
2023-02-27T15:22:05.269Z,3.83
2023-02-27T15:24:49.765Z,3.15
2023-02-27T15:27:22.839Z,3.28
2023-02-27T15:30:00.062Z,1.52
2023-02-27T15:32:33.375Z,4.65
2023-02-27T15:35:42.534Z,1.50
2023-02-27T15:38:32.745Z,2.72
2023-02-27T15:41:03.328Z,1.92
2023-02-27T15:43:31.680Z,1.95
2023-02-27T15:45:59.214Z,2.40
2023-02-27T15:48:26.906Z,2.05
2023-02-27T15:50:58.541Z,4.80
2023-02-27T15:53:29.879Z,1.63
2023-02-27T15:56:09.526Z,2.92
2023-02-27T15:59:05.229Z,2.83
2023-02-27T16:01:34.945Z,6.43
2023-02-27T16:04:20.617Z,2.10
2023-02-27T16:09:32.720Z,1.27
2023-02-27T16:12:33.245Z,1.80
2023-02-27T16:15:30.094Z,1.58
2023-02-27T16:18:17.195Z,1.20
2023-02-27T16:20:55.718Z,0.93
2023-02-27T16:23:29.577Z,1.60
2023-02-27T16:26:32.513Z,1.77
2023-02-27T16:29:19.725Z,1.63
2023-02-27T16:31:58.036Z,1.02
2023-02-27T16:34:47.790Z,1.85
2023-02-27T16:37:27.539Z,3.20
2023-02-27T16:39:54.636Z,1.25
2023-02-27T16:42:22.897Z,1.45
2023-02-27T16:44:50.003Z,2.55
2023-02-27T16:47:21.845Z,0.88
2023-02-27T16:49:52.893Z,1.05
2023-02-27T16:52:22.586Z,2.42
2023-02-27T16:54:49.664Z,0.70
2023-02-27T16:57:17.735Z,1.38
2023-02-27T16:59:44.745Z,0.80
2023-02-27T17:02:15.108Z,4.78
2023-02-27T17:04:47.933Z,2.00
2023-02-27T17:07:17.973Z,3.15
2023-02-27T17:09:47.488Z,1.58
2023-02-27T17:12:14.710Z,1.33
2023-02-27T17:14:41.579Z,2.45
2023-02-27T17:17:10.969Z,2.22
2023-02-27T17:19:38.525Z,1.30
2023-02-27T17:22:05.515Z,3.05
2023-02-27T17:24:32.776Z,1.52
2023-02-27T17:55:19.071Z,2.47
2023-02-27T17:57:46.145Z,6.05
2023-02-27T18:00:15.314Z,4.45
2023-02-27T18:02:45.027Z,2.45
2023-02-27T18:05:12.335Z,3.05
2023-02-27T18:07:40.097Z,6.25
2023-02-27T18:10:09.286Z,3.08
2023-02-27T18:12:37.455Z,5.28
2023-02-27T18:15:06.095Z,2.03
2023-02-27T18:17:33.451Z,3.42
2023-02-27T18:20:00.673Z,3.78
2023-02-27T18:22:29.921Z,3.90
2023-02-27T18:24:58.625Z,3.17
2023-02-27T18:27:26.712Z,4.63
2023-02-27T18:29:53.911Z,2.47
2023-02-27T18:32:21.161Z,4.45
2023-02-27T18:34:48.284Z,5.18
2023-02-27T18:37:15.352Z,7.80
2023-02-27T18:39:42.716Z,3.72
2023-02-27T18:42:09.669Z,2.80
2023-02-27T18:44:38.680Z,3.00
2023-02-27T18:47:05.714Z,3.53
2023-02-27T18:49:33.047Z,3.83
2023-02-27T18:51:59.943Z,4.28
2023-02-27T18:54:26.896Z,7.78
2023-02-27T18:56:54.106Z,5.85
2023-02-27T18:59:21.112Z,7.93
2023-02-27T19:01:48.050Z,5.38
2023-02-27T19:04:15.016Z,4.63
2023-02-27T19:06:42.788Z,4.70
2023-02-27T19:09:17.862Z,5.68
2023-02-27T19:11:46.992Z,4.95
2023-02-27T19:14:16.092Z,5.15
2023-02-27T19:16:44.226Z,5.75
2023-02-27T19:19:11.913Z,3.40
2023-02-27T19:21:40.134Z,4.30
2023-02-27T19:24:09.118Z,6.25
2023-02-27T19:26:36.404Z,5.53
2023-02-27T19:29:05.425Z,3.65
2023-02-27T19:31:33.108Z,6.68
2023-02-27T19:34:01.605Z,4.50
2023-02-27T19:36:31.161Z,5.80
2023-02-27T19:38:59.208Z,4.18
2023-02-27T19:41:27.458Z,3.88
2023-02-27T19:43:55.222Z,5.25
2023-02-27T19:46:34.934Z,4.22
2023-02-27T19:49:06.130Z,5.45
2023-02-27T19:51:34.123Z,4.18
2023-02-27T19:54:01.164Z,5.50
2023-02-27T19:56:29.810Z,5.68
2023-02-27T19:58:57.893Z,9.18
2023-02-27T20:01:27.861Z,4.82
2023-02-27T20:03:59.257Z,4.38
2023-02-27T20:06:30.741Z,4.40
2023-02-27T20:08:59.633Z,6.05
2023-02-27T20:11:31.627Z,4.60
2023-02-27T20:14:00.148Z,7.45
2023-02-27T20:16:30.409Z,4.13
2023-02-27T20:18:57.961Z,5.10
2023-02-27T20:21:28.506Z,5.85
2023-02-27T20:23:57.938Z,7.97
2023-02-27T20:26:31.646Z,5.18
2023-02-27T20:29:11.301Z,6.88
2023-02-27T20:31:41.086Z,5.50
2023-02-27T20:34:11.675Z,6.88
2023-02-27T20:36:40.428Z,7.40
2023-02-27T20:39:10.285Z,4.60
2023-02-27T20:41:38.717Z,7.05
2023-02-27T20:44:08.528Z,5.70
2023-02-27T20:46:36.371Z,5.47
2023-02-27T20:49:05.995Z,5.80
2023-02-27T20:51:37.045Z,8.07
2023-02-27T20:54:08.804Z,5.30
2023-02-27T20:56:41.224Z,6.75
2023-02-27T20:59:14.527Z,7.07
2023-02-27T21:01:51.141Z,5.85
2023-02-27T21:04:45.440Z,8.65
2023-02-27T21:07:16.248Z,6.25
2023-02-27T21:09:43.194Z,4.85
2023-02-27T21:12:10.811Z,7.50
2023-02-27T21:14:37.853Z,5.88
2023-02-27T21:17:06.032Z,6.10
2023-02-27T21:19:33.165Z,5.28
2023-02-27T21:22:00.172Z,5.72
2023-02-27T21:24:27.165Z,7.65
2023-02-27T21:26:54.235Z,5.88
2023-02-27T21:29:22.049Z,5.03
2023-02-27T21:31:51.438Z,5.18
2023-02-27T21:34:25.687Z,6.35
2023-02-27T21:36:53.159Z,5.30
2023-02-27T21:39:25.368Z,7.93
2023-02-27T21:41:53.228Z,5.28
2023-02-27T21:44:25.165Z,7.43
2023-02-27T21:46:54.003Z,5.22
2023-02-27T21:49:25.257Z,7.00
2023-02-27T21:51:53.022Z,5.07
2023-02-27T21:54:21.053Z,8.27
2023-02-27T21:56:49.012Z,5.63
2023-02-27T21:59:19.014Z,5.43
2023-02-27T22:01:48.516Z,6.90
2023-02-27T22:04:18.570Z,6.25
2023-02-27T22:06:47.122Z,5.78
2023-02-27T22:09:14.050Z,7.40
2023-02-27T22:11:41.110Z,6.90
2023-02-27T22:14:10.308Z,9.30
2023-02-27T22:16:37.621Z,8.23
2023-02-27T22:19:11.251Z,8.98
2023-02-27T22:21:38.898Z,10.35
2023-02-27T22:24:07.199Z,8.45
2023-02-27T22:26:34.575Z,7.45
2023-02-27T22:29:02.554Z,8.63
2023-02-27T22:31:36.542Z,8.57
2023-02-27T22:34:18.402Z,6.78
2023-02-27T22:36:52.539Z,7.25
2023-02-27T22:39:20.492Z,8.32
2023-02-27T22:41:47.451Z,7.45
2023-02-27T22:44:16.160Z,6.70
2023-02-27T22:46:47.175Z,5.13
2023-02-27T22:49:23.420Z,8.10
2023-02-27T22:51:52.271Z,8.07
2023-02-27T22:54:22.057Z,8.30
2023-02-27T22:56:53.521Z,7.75
2023-02-27T22:59:21.134Z,5.47
2023-02-27T23:01:48.844Z,5.05
2023-02-27T23:04:19.405Z,7.63
2023-02-27T23:06:46.446Z,8.32
2023-02-27T23:09:19.008Z,6.30
2023-02-27T23:11:46.399Z,7.90
2023-02-27T23:14:14.771Z,5.68
2023-02-27T23:16:45.624Z,5.15
2023-02-27T23:19:19.946Z,5.88
2023-02-27T23:21:47.702Z,6.25
2023-02-27T23:24:18.137Z,7.30
2023-02-27T23:26:48.887Z,7.18
2023-02-27T23:29:16.302Z,6.18
2023-02-27T23:31:43.348Z,8.55
2023-02-27T23:34:10.980Z,6.30
2023-02-27T23:36:39.013Z,7.60
2023-02-27T23:39:07.010Z,7.85
2023-02-27T23:41:34.870Z,6.10
2023-02-27T23:44:02.120Z,7.30
2023-02-27T23:46:30.401Z,7.40
2023-02-27T23:49:01.953Z,6.07
2023-02-27T23:51:31.029Z,8.80
2023-02-27T23:53:59.561Z,7.45
2023-02-27T23:56:30.128Z,7.55
2023-02-27T23:59:01.711Z,6.45
